createdAt,value
2022-09-18T00:02:43.332Z,9.13
2022-09-18T00:07:45.308Z,9.07
2022-09-18T00:12:47.130Z,8.98
2022-09-18T00:17:48.822Z,8.93
2022-09-18T00:22:50.502Z,8.89
2022-09-18T00:27:52.325Z,8.86
2022-09-18T00:32:54.201Z,8.81
2022-09-18T00:37:56.076Z,8.77
2022-09-18T00:42:59.056Z,8.74
2022-09-18T00:48:18.356Z,8.74
2022-09-18T00:53:28.597Z,8.70
2022-09-18T00:58:30.551Z,8.68
2022-09-18T01:03:33.032Z,8.65
2022-09-18T01:09:05.392Z,8.60
2022-09-18T01:14:41.223Z,8.51
2022-09-18T01:20:08.157Z,8.44
2022-09-18T01:25:22.516Z,8.37
2022-09-18T01:30:38.361Z,8.33
2022-09-18T01:35:52.984Z,8.29
2022-09-18T01:41:06.437Z,8.17
2022-09-18T01:46:18.192Z,8.06
2022-09-18T01:51:29.676Z,7.98
2022-09-18T01:56:38.357Z,7.89
2022-09-18T02:01:44.552Z,7.83
2022-09-18T02:06:58.406Z,7.79
2022-09-18T02:12:01.952Z,7.73
2022-09-18T02:17:13.818Z,7.63
2022-09-18T02:22:20.113Z,7.53
2022-09-18T02:27:27.253Z,7.46
2022-09-18T02:32:31.719Z,7.35
2022-09-18T02:37:52.236Z,7.21
2022-09-18T02:43:26.802Z,7.11
2022-09-18T02:48:51.741Z,7.01
2022-09-18T02:54:04.376Z,6.90
2022-09-18T02:59:10.231Z,6.79
2022-09-18T03:04:36.328Z,6.69
2022-09-18T03:10:02.520Z,6.62
2022-09-18T03:15:06.937Z,6.58
2022-09-18T03:20:09.887Z,6.57
2022-09-18T03:25:14.450Z,6.65
2022-09-18T03:30:16.639Z,6.72
2022-09-18T03:35:18.850Z,6.74
2022-09-18T03:40:21.216Z,6.81
2022-09-18T03:45:23.135Z,6.89
2022-09-18T03:50:24.919Z,6.89
2022-09-18T03:55:27.493Z,6.92
2022-09-18T04:00:48.014Z,6.99
2022-09-18T04:05:54.585Z,6.99
2022-09-18T04:11:35.788Z,6.99
2022-09-18T04:16:37.791Z,7.00
2022-09-18T04:21:39.689Z,7.02
2022-09-18T04:26:41.508Z,7.03
2022-09-18T04:31:44.177Z,7.04
2022-09-18T04:36:54.839Z,7.01
2022-09-18T04:41:57.089Z,6.96
2022-09-18T04:46:59.328Z,6.93
2022-09-18T04:52:21.332Z,6.95
2022-09-18T04:57:36.713Z,6.99
2022-09-18T05:02:39.002Z,7.03
2022-09-18T05:07:43.594Z,7.10
2022-09-18T05:12:45.652Z,7.13
2022-09-18T05:17:48.210Z,7.14
2022-09-18T05:22:50.693Z,7.24
2022-09-18T05:27:58.169Z,7.41
2022-09-18T05:33:05.289Z,7.60
2022-09-18T05:38:13.749Z,7.76
2022-09-18T05:43:38.338Z,7.91
2022-09-18T05:48:49.838Z,8.11
2022-09-18T05:53:55.655Z,8.30
2022-09-18T05:59:01.070Z,8.47
2022-09-18T06:04:04.543Z,8.50
2022-09-18T06:09:16.563Z,8.64
2022-09-18T06:14:18.305Z,8.74
2022-09-18T06:19:21.461Z,8.83
2022-09-18T06:24:23.550Z,8.94
2022-09-18T06:29:32.826Z,8.97
2022-09-18T06:34:39.969Z,9.01
2022-09-18T06:39:43.754Z,9.12
2022-09-18T06:44:52.131Z,9.30
2022-09-18T06:50:15.301Z,9.47
2022-09-18T06:55:27.114Z,9.61
2022-09-18T07:00:29.277Z,9.81
2022-09-18T07:05:32.751Z,10.02
2022-09-18T07:10:35.275Z,10.29
2022-09-18T07:15:37.329Z,10.38
2022-09-18T07:20:41.318Z,10.62
2022-09-18T07:25:43.253Z,10.92
2022-09-18T07:30:45.334Z,10.98
2022-09-18T07:35:48.036Z,11.09
2022-09-18T07:40:52.961Z,11.29
2022-09-18T07:46:09.100Z,11.40
2022-09-18T07:51:12.737Z,11.54
2022-09-18T07:56:16.617Z,11.80
2022-09-18T08:01:18.655Z,12.18
2022-09-18T08:06:28.311Z,12.34
2022-09-18T08:11:56.192Z,12.49
2022-09-18T08:17:14.051Z,12.94
2022-09-18T08:22:39.407Z,13.16
2022-09-18T08:27:41.824Z,12.80
2022-09-18T08:32:43.893Z,12.37
2022-09-18T08:37:52.326Z,12.05
2022-09-18T08:43:37.365Z,11.57
2022-09-18T08:49:08.740Z,11.32
2022-09-18T08:54:46.339Z,11.43
2022-09-18T09:00:04.359Z,11.91
2022-09-18T09:05:16.831Z,12.45
2022-09-18T09:10:39.031Z,12.56
2022-09-18T09:15:54.414Z,12.67
2022-09-18T09:21:20.593Z,13.42
2022-09-18T09:26:24.802Z,13.65
2022-09-18T09:32:04.497Z,14.11
2022-09-18T09:37:53.330Z,14.20
2022-09-18T09:43:29.771Z,13.81
2022-09-18T09:49:00.445Z,13.59
2022-09-18T09:54:03.354Z,13.30
2022-09-18T09:59:27.094Z,12.51
2022-09-18T10:05:27.238Z,11.66
2022-09-18T10:10:49.381Z,11.24
2022-09-18T10:16:05.790Z,11.17
2022-09-18T10:21:36.794Z,11.25
2022-09-18T10:27:14.323Z,11.28
2022-09-18T10:32:38.419Z,11.55
2022-09-18T10:37:51.024Z,11.57
2022-09-18T10:43:01.636Z,11.06
2022-09-18T10:48:24.297Z,10.54
2022-09-18T10:53:38.633Z,10.37
2022-09-18T10:58:46.692Z,10.45
2022-09-18T11:04:05.020Z,10.61
2022-09-18T11:09:11.293Z,10.62
2022-09-18T11:14:24.987Z,10.77
2022-09-18T11:19:40.300Z,10.51
2022-09-18T11:25:17.466Z,10.22
2022-09-18T11:30:27.924Z,10.06
2022-09-18T11:35:31.827Z,10.08
2022-09-18T11:40:44.960Z,10.09
2022-09-18T11:46:31.365Z,10.16
2022-09-18T11:52:02.512Z,10.23
2022-09-18T11:57:19.078Z,9.96
2022-09-18T12:02:38.147Z,10.01
2022-09-18T12:07:58.121Z,10.04
2022-09-18T12:13:13.664Z,9.97
2022-09-18T12:18:31.202Z,10.02
2022-09-18T12:23:36.273Z,9.89
2022-09-18T12:28:54.404Z,9.79
2022-09-18T12:34:08.898Z,9.68
2022-09-18T12:39:36.687Z,9.72
2022-09-18T12:45:43.781Z,9.83
2022-09-18T12:50:48.286Z,9.94
2022-09-18T12:56:19.563Z,10.11
2022-09-18T13:01:45.671Z,10.14
2022-09-18T13:06:58.212Z,10.29
2022-09-18T13:12:27.235Z,10.53
2022-09-18T13:17:39.525Z,10.97
2022-09-18T13:22:45.003Z,11.16
2022-09-18T13:27:47.732Z,11.23
2022-09-18T13:33:11.270Z,11.00
2022-09-18T13:38:28.851Z,10.46
2022-09-18T13:43:33.585Z,10.12
2022-09-18T13:48:45.649Z,10.06
2022-09-18T13:54:07.812Z,10.03
2022-09-18T13:59:21.961Z,10.02
2022-09-18T14:04:39.205Z,10.14
2022-09-18T14:09:48.971Z,10.34
2022-09-18T14:15:26.878Z,10.48
2022-09-18T14:20:28.807Z,10.55
2022-09-18T14:25:50.818Z,10.60
2022-09-18T14:31:17.199Z,10.68
2022-09-18T14:36:19.070Z,10.63
2022-09-18T14:41:27.110Z,10.64
2022-09-18T14:46:52.219Z,10.69
2022-09-18T14:52:03.588Z,11.00
2022-09-18T14:57:14.735Z,11.43
2022-09-18T15:02:22.614Z,12.63
2022-09-18T15:07:25.981Z,12.81
2022-09-18T15:12:31.696Z,12.61
2022-09-18T15:17:33.937Z,12.44
2022-09-18T15:22:35.918Z,12.42
2022-09-18T15:27:38.575Z,13.04
2022-09-18T15:32:45.679Z,13.35
2022-09-18T15:37:51.728Z,13.69
2022-09-18T15:43:27.141Z,13.97
2022-09-18T15:48:35.164Z,14.37
2022-09-18T15:53:39.008Z,14.64
2022-09-18T15:58:55.267Z,14.92
2022-09-18T16:04:04.459Z,15.03
2022-09-18T16:09:07.829Z,14.91
2022-09-18T16:14:39.623Z,14.78
2022-09-18T16:19:44.366Z,13.99
2022-09-18T16:24:46.666Z,13.13
2022-09-18T16:29:49.067Z,12.47
2022-09-18T16:34:50.870Z,11.95
2022-09-18T16:39:52.610Z,11.50
2022-09-18T16:45:28.311Z,11.10
2022-09-18T16:50:33.928Z,10.80
2022-09-18T16:55:52.188Z,10.57
2022-09-18T17:00:54.167Z,10.21
2022-09-18T17:05:56.358Z,9.91
2022-09-18T17:10:58.091Z,9.70
2022-09-18T17:16:01.805Z,9.60
2022-09-18T17:21:05.512Z,9.60
2022-09-18T17:26:10.214Z,9.44
2022-09-18T17:31:29.365Z,9.35
2022-09-18T17:36:59.243Z,9.29
2022-09-18T17:42:15.122Z,9.21
2022-09-18T17:47:17.010Z,9.06
2022-09-18T17:52:39.285Z,8.94
2022-09-18T17:57:41.247Z,8.81
2022-09-18T18:02:43.226Z,8.62
2022-09-18T18:07:44.979Z,8.39
2022-09-18T18:12:46.693Z,8.18
2022-09-18T18:17:49.484Z,7.99
2022-09-18T18:23:04.448Z,7.86
2022-09-18T18:28:09.206Z,7.77
2022-09-18T18:33:11.483Z,7.67
2022-09-18T18:38:16.937Z,7.62
2022-09-18T18:43:18.762Z,7.62
2022-09-18T18:48:23.501Z,7.64
2022-09-18T18:53:26.372Z,7.64
2022-09-18T18:58:28.527Z,7.64
2022-09-18T19:03:30.761Z,7.61
2022-09-18T19:08:34.559Z,7.52
2022-09-18T19:13:41.626Z,7.37
2022-09-18T19:18:43.536Z,7.24
2022-09-18T19:23:49.911Z,7.18
2022-09-18T19:28:53.434Z,7.14
2022-09-18T19:33:56.623Z,7.08
2022-09-18T19:39:00.738Z,6.99
2022-09-18T19:44:04.788Z,6.91
2022-09-18T19:49:15.745Z,6.95
2022-09-18T19:54:17.996Z,7.02
2022-09-18T19:59:19.731Z,7.07
2022-09-18T20:04:21.589Z,7.09
2022-09-18T20:09:28.611Z,7.10
2022-09-18T20:14:30.337Z,7.15
2022-09-18T20:19:32.176Z,7.30
2022-09-18T20:24:34.238Z,7.43
2022-09-18T20:29:36.392Z,7.58
2022-09-18T20:34:38.701Z,7.72
2022-09-18T20:39:44.523Z,7.84
2022-09-18T20:44:46.240Z,7.94
2022-09-18T20:49:50.393Z,8.02
2022-09-18T20:54:52.897Z,8.08
2022-09-18T20:59:54.601Z,8.13
2022-09-18T21:04:57.467Z,8.19
2022-09-18T21:10:00.169Z,8.27
2022-09-18T21:15:02.251Z,8.39
2022-09-18T21:20:07.087Z,8.49
2022-09-18T21:25:09.482Z,8.56
2022-09-18T21:30:12.600Z,8.57
2022-09-18T21:35:14.637Z,8.55
2022-09-18T21:40:16.613Z,8.52
2022-09-18T21:45:20.380Z,8.50
2022-09-18T21:50:22.877Z,8.49
2022-09-18T21:55:24.824Z,8.51
2022-09-18T22:00:26.625Z,8.50
2022-09-18T22:05:29.415Z,8.45
2022-09-18T22:10:31.242Z,8.34
2022-09-18T22:15:33.123Z,8.28
2022-09-18T22:20:37.016Z,8.21
2022-09-18T22:25:40.413Z,8.16
2022-09-18T22:30:42.189Z,8.14
2022-09-18T22:35:43.896Z,8.10
2022-09-18T22:40:45.633Z,8.04
2022-09-18T22:45:47.615Z,7.97
2022-09-18T22:50:50.501Z,7.86
2022-09-18T22:55:52.385Z,7.79
2022-09-18T23:00:54.214Z,7.77
2022-09-18T23:05:55.912Z,7.72
2022-09-18T23:11:08.172Z,7.66
2022-09-18T23:16:13.025Z,7.66
2022-09-18T23:21:15.020Z,7.64
2022-09-18T23:26:19.753Z,7.64
2022-09-18T23:31:24.901Z,7.62
2022-09-18T23:36:35.794Z,7.60
2022-09-18T23:41:38.478Z,7.60
2022-09-18T23:46:41.207Z,7.61
2022-09-18T23:51:46.434Z,7.60
2022-09-18T23:56:49.021Z,7.59
